Terminal Aerodrome Forecast
Issued by NWS

Home | Current Version | Previous Version | Graphics & Text | Print | Product List | Glossary On
Versions: 1 2 3 4 5 6 7 8 9 10 11 12 13 14 15 16 17 18 19 20 21 22 23 24 25
000
FTUS43 KABR 231204 AAA
TAFATY
TAF AMD
KATY 231204Z 2312/2412 10009KT P6SM VCTS BKN004 BKN030CB
      TEMPO 2312/2314 -TSRA
     FM231400 14011KT P6SM BKN200
     FM232000 19012KT P6SM VCTS BKN060CB
     FM240000 27010KT P6SM BKN250
     FM240300 VRB05KT P6SM SCT250=

USA.gov is the U.S. government's official web portal to all federal, state and local government web resources and services.